Time;durP1;ratioP1;P1;durP2;ratioP2;P2;SDS_P1;SDS_P2;PMS_P1;PMS_P2;Temp;Humidity;BMP_temperature;BMP_pressure;BME280_temperature;BME280_humidity;BME280_pressure;Samples;Min_cycle;Max_cycle;Signal;HPM_P1;HPM_P2
2022/10/27 00:00:57;;;;;;;5.40;2.20;;;;;;;;;;5086319;28;20517;-69
2022/10/27 00:03:23;;;;;;;6.13;2.87;;;;;;;;;;5084305;28;20496;-69
2022/10/27 00:05:49;;;;;;;13.03;3.20;;;;;;;;;;5087049;28;20431;-69
2022/10/27 00:08:19;;;;;;;16.97;3.93;;;;;;;;;;5087211;28;20974;-69
2022/10/27 00:10:45;;;;;;;3.30;2.73;;;;;;;;;;5087817;28;20432;-69
2022/10/27 00:13:12;;;;;;;7.73;2.70;;;;;;;;;;5086587;28;20800;-69
2022/10/27 00:15:38;;;;;;;8.97;2.40;;;;;;;;;;5087528;28;20417;-69
2022/10/27 00:18:08;;;;;;;5.90;2.37;;;;;;;;;;5085850;28;20483;-69
2022/10/27 00:20:34;;;;;;;2.40;2.33;;;;;;;;;;5087019;28;20475;-69
2022/10/27 00:23:00;;;;;;;6.73;2.63;;;;;;;;;;5086972;28;20872;-69
2022/10/27 00:25:26;;;;;;;6.40;2.50;;;;;;;;;;5084826;28;20428;-69
2022/10/27 00:27:52;;;;;;;7.07;2.83;;;;;;;;;;5087412;28;20439;-69
2022/10/27 00:30:18;;;;;;;7.17;2.30;;;;;;;;;;5086514;28;20432;-69
2022/10/27 00:32:44;;;;;;;1.90;1.80;;;;;;;;;;5085255;28;20428;-69
2022/10/27 00:35:10;;;;;;;10.80;2.83;;;;;;;;;;5086213;28;20900;-69
2022/10/27 00:37:36;;;;;;;1.87;1.77;;;;;;;;;;5087604;28;22108;-69
2022/10/27 00:40:02;;;;;;;2.83;2.03;;;;;;;;;;5086451;28;20432;-69
2022/10/27 00:42:28;;;;;;;2.83;2.07;;;;;;;;;;5085167;28;20554;-69
2022/10/27 00:44:54;;;;;;;2.77;2.40;;;;;;;;;;5088087;28;20523;-69
2022/10/27 00:47:28;;;;;;;2.10;2.00;;;;;;;;;;5086986;28;20429;-69
2022/10/27 00:49:57;;;;;;;2.67;1.50;;;;;;;;;;5086612;28;20437;-69
2022/10/27 00:52:30;;;;;;;2.50;1.80;;;;;;;;;;5085305;28;20507;-69
2022/10/27 00:54:57;;;;;;;12.27;1.80;;;;;;;;;;5084688;28;20433;-69
2022/10/27 00:57:24;;;;;;;7.50;1.87;;;;;;;;;;5083060;28;20827;-69
2022/10/27 00:59:50;;;;;;;5.80;2.00;;;;;;;;;;5086566;28;20448;-69
2022/10/27 01:02:16;;;;;;;2.43;2.20;;;;;;;;;;5084776;28;20447;-69
2022/10/27 01:04:51;;;;;;;2.33;1.90;;;;;;;;;;5083921;28;20502;-69
2022/10/27 01:07:18;;;;;;;2.40;1.67;;;;;;;;;;5086134;28;20534;-69
2022/10/27 01:09:45;;;;;;;10.93;1.53;;;;;;;;;;5086686;28;20828;-70
2022/10/27 01:12:11;;;;;;;4.23;2.60;;;;;;;;;;5086722;28;20460;-69
2022/10/27 01:14:37;;;;;;;3.13;1.23;;;;;;;;;;5091538;28;20476;-69
2022/10/27 01:17:09;;;;;;;2.20;1.17;;;;;;;;;;5086493;28;20464;-69
2022/10/27 01:19:46;;;;;;;2.90;2.00;;;;;;;;;;5091282;28;20417;-69
2022/10/27 01:22:28;;;;;;;2.07;1.63;;;;;;;;;;5088138;28;20424;-69
2022/10/27 01:25:06;;;;;;;4.00;2.37;;;;;;;;;;5091124;28;20537;-69
2022/10/27 01:27:51;;;;;;;4.23;1.80;;;;;;;;;;5086325;28;20955;-69
2022/10/27 01:30:21;;;;;;;6.90;2.00;;;;;;;;;;5086884;28;20459;-69
2022/10/27 01:33:00;;;;;;;2.00;1.80;;;;;;;;;;5089391;28;20437;-70
2022/10/27 01:35:32;;;;;;;9.97;1.90;;;;;;;;;;5089859;28;20508;-69
2022/10/27 01:38:17;;;;;;;2.20;2.20;;;;;;;;;;5091017;28;20467;-69
2022/10/27 01:40:46;;;;;;;8.53;2.30;;;;;;;;;;5103005;28;20433;-70
2022/10/27 01:43:14;;;;;;;9.87;1.90;;;;;;;;;;5089849;28;20895;-69
2022/10/27 01:45:41;;;;;;;3.50;2.30;;;;;;;;;;5090466;28;20943;-69
2022/10/27 01:48:07;;;;;;;10.03;1.97;;;;;;;;;;5089110;28;21166;-69
2022/10/27 01:50:34;;;;;;;10.00;1.93;;;;;;;;;;5090240;28;20436;-69
2022/10/27 01:53:00;;;;;;;3.03;1.70;;;;;;;;;;5087313;28;20788;-69
2022/10/27 01:55:26;;;;;;;4.27;1.50;;;;;;;;;;5090116;28;20438;-69
2022/10/27 01:57:52;;;;;;;3.97;1.40;;;;;;;;;;5086474;28;20440;-69
2022/10/27 02:00:18;;;;;;;1.80;1.70;;;;;;;;;;5087954;28;20439;-69
2022/10/27 02:02:49;;;;;;;2.23;2.10;;;;;;;;;;5089584;28;20433;-69
2022/10/27 02:05:20;;;;;;;4.10;1.63;;;;;;;;;;5088004;28;20912;-69
2022/10/27 02:07:53;;;;;;;8.30;2.43;;;;;;;;;;5103371;28;20846;-69
2022/10/27 02:10:24;;;;;;;2.00;1.50;;;;;;;;;;5089136;28;20432;-69
2022/10/27 02:12:50;;;;;;;7.53;2.40;;;;;;;;;;5088096;28;20432;-69
2022/10/27 02:15:25;;;;;;;4.77;2.30;;;;;;;;;;5088561;28;20962;-69
2022/10/27 02:17:52;;;;;;;4.20;1.70;;;;;;;;;;5088154;28;20439;-69
2022/10/27 02:20:21;;;;;;;5.63;1.57;;;;;;;;;;5087610;28;20577;-69
2022/10/27 02:22:49;;;;;;;2.50;1.57;;;;;;;;;;5105348;28;20436;-69
2022/10/27 02:25:15;;;;;;;4.27;1.83;;;;;;;;;;5090243;28;20447;-69
2022/10/27 02:27:43;;;;;;;3.80;2.17;;;;;;;;;;5086383;28;20433;-69
2022/10/27 02:30:09;;;;;;;1.47;1.27;;;;;;;;;;5088800;28;20424;-69
2022/10/27 02:32:36;;;;;;;5.53;1.70;;;;;;;;;;5089736;28;20435;-69
2022/10/27 02:35:04;;;;;;;1.10;1.10;;;;;;;;;;5089738;28;20432;-69
2022/10/27 02:37:31;;;;;;;4.03;1.70;;;;;;;;;;5086153;28;20428;-69
2022/10/27 02:39:57;;;;;;;2.23;2.13;;;;;;;;;;5089228;28;20483;-69
2022/10/27 02:42:23;;;;;;;5.63;3.07;;;;;;;;;;5088691;28;20424;-69
2022/10/27 02:44:49;;;;;;;2.50;2.40;;;;;;;;;;5087786;28;20509;-70
2022/10/27 02:47:15;;;;;;;1.20;1.20;;;;;;;;;;5085949;28;20995;-69
2022/10/27 02:49:41;;;;;;;1.30;1.30;;;;;;;;;;5088681;28;20444;-70
2022/10/27 02:52:07;;;;;;;2.17;1.67;;;;;;;;;;5088350;28;20446;-69
2022/10/27 02:54:33;;;;;;;2.20;1.40;;;;;;;;;;5087621;28;20432;-69
2022/10/27 02:56:59;;;;;;;1.93;1.37;;;;;;;;;;5088172;28;20916;-69
2022/10/27 02:59:25;;;;;;;3.60;1.37;;;;;;;;;;5088496;28;20424;-69
2022/10/27 03:01:51;;;;;;;0.90;0.90;;;;;;;;;;5101961;28;20428;-70
2022/10/27 03:04:17;;;;;;;3.27;1.13;;;;;;;;;;5087851;28;20575;-69
2022/10/27 03:06:43;;;;;;;12.60;1.97;;;;;;;;;;5086446;28;20428;-69
2022/10/27 03:09:09;;;;;;;5.50;1.20;;;;;;;;;;5087126;28;20437;-69
2022/10/27 03:11:35;;;;;;;5.60;1.30;;;;;;;;;;5089163;28;20444;-69
2022/10/27 03:14:01;;;;;;;1.13;1.13;;;;;;;;;;5089335;28;20497;-69
2022/10/27 03:16:27;;;;;;;2.97;1.10;;;;;;;;;;5099132;28;20944;-69
2022/10/27 03:18:53;;;;;;;1.30;1.20;;;;;;;;;;5087521;28;20441;-69
2022/10/27 03:21:19;;;;;;;1.10;1.10;;;;;;;;;;5087789;28;20501;-69
2022/10/27 03:23:45;;;;;;;3.90;2.10;;;;;;;;;;5086343;28;20487;-69
2022/10/27 03:26:11;;;;;;;1.87;1.17;;;;;;;;;;5084671;28;21022;-69
2022/10/27 03:28:37;;;;;;;1.00;1.00;;;;;;;;;;5088968;28;20786;-69
2022/10/27 03:31:06;;;;;;;3.93;3.73;;;;;;;;;;5086970;28;20428;-69
2022/10/27 03:33:32;;;;;;;3.93;1.27;;;;;;;;;;5086534;28;20452;-69
2022/10/27 03:35:58;;;;;;;11.40;1.50;;;;;;;;;;5087502;28;20440;-69
2022/10/27 03:38:24;;;;;;;1.73;1.63;;;;;;;;;;5087477;28;20460;-69
2022/10/27 03:40:50;;;;;;;1.40;1.23;;;;;;;;;;5086364;28;20524;-69
2022/10/27 03:43:16;;;;;;;9.17;1.90;;;;;;;;;;5088355;28;20558;-69
2022/10/27 03:45:42;;;;;;;1.23;1.00;;;;;;;;;;5086437;28;20497;-69
2022/10/27 03:48:12;;;;;;;1.90;1.00;;;;;;;;;;5088214;28;20533;-69
2022/10/27 03:50:38;;;;;;;1.77;1.67;;;;;;;;;;5102211;28;20420;-68
2022/10/27 03:53:04;;;;;;;1.50;1.37;;;;;;;;;;5086740;28;20513;-69
2022/10/27 03:55:31;;;;;;;1.80;1.50;;;;;;;;;;5086755;28;20445;-69
2022/10/27 03:57:57;;;;;;;0.90;0.90;;;;;;;;;;5086455;28;20432;-69
2022/10/27 04:00:23;;;;;;;5.20;1.47;;;;;;;;;;5086667;28;20435;-69
2022/10/27 04:02:52;;;;;;;4.33;1.67;;;;;;;;;;5085257;28;20453;-69
2022/10/27 04:05:18;;;;;;;4.23;1.67;;;;;;;;;;5086641;28;20433;-69
2022/10/27 04:07:45;;;;;;;1.70;1.60;;;;;;;;;;5086112;28;20437;-69
2022/10/27 04:10:11;;;;;;;2.63;1.43;;;;;;;;;;5087622;28;20442;-69
2022/10/27 04:12:37;;;;;;;2.57;2.27;;;;;;;;;;5084905;28;20444;-69
2022/10/27 04:15:04;;;;;;;10.40;2.13;;;;;;;;;;5088302;28;20978;-69
2022/10/27 04:17:29;;;;;;;2.90;2.00;;;;;;;;;;5085133;28;20953;-69
2022/10/27 04:19:55;;;;;;;1.13;1.13;;;;;;;;;;5086583;28;20534;-69
2022/10/27 04:22:22;;;;;;;3.73;2.27;;;;;;;;;;5086539;28;20451;-69
2022/10/27 04:24:47;;;;;;;1.80;1.50;;;;;;;;;;5087110;28;21040;-69
2022/10/27 04:27:13;;;;;;;5.43;1.63;;;;;;;;;;5087841;28;20424;-69
2022/10/27 04:29:39;;;;;;;1.60;1.50;;;;;;;;;;5086844;28;20963;-69
2022/10/27 04:32:05;;;;;;;5.80;2.23;;;;;;;;;;5083602;28;20429;-69
2022/10/27 04:34:31;;;;;;;3.90;1.30;;;;;;;;;;5085648;28;20420;-69
2022/10/27 04:36:57;;;;;;;3.23;1.30;;;;;;;;;;5087264;28;20913;-69
2022/10/27 04:39:23;;;;;;;3.60;1.20;;;;;;;;;;5086924;28;21953;-69
2022/10/27 04:41:49;;;;;;;2.17;1.50;;;;;;;;;;5102316;28;20433;-69
2022/10/27 04:44:15;;;;;;;1.83;1.73;;;;;;;;;;5088526;28;20513;-69
2022/10/27 04:46:41;;;;;;;1.30;1.30;;;;;;;;;;5087759;28;20474;-69
2022/10/27 04:49:07;;;;;;;2.67;1.13;;;;;;;;;;5091498;28;20448;-69
2022/10/27 04:51:33;;;;;;;2.93;2.00;;;;;;;;;;5063477;28;20456;-68
2022/10/27 04:53:59;;;;;;;2.80;2.70;;;;;;;;;;5088384;28;20435;-69
2022/10/27 04:56:25;;;;;;;4.77;3.70;;;;;;;;;;5090243;28;20437;-69
2022/10/27 04:58:51;;;;;;;3.60;2.70;;;;;;;;;;5089641;28;20428;-69
2022/10/27 05:01:17;;;;;;;3.77;3.40;;;;;;;;;;5089023;28;20503;-69
2022/10/27 05:03:43;;;;;;;5.10;3.87;;;;;;;;;;5089403;28;20492;-69
2022/10/27 05:06:09;;;;;;;2.13;2.13;;;;;;;;;;5087474;28;20757;-69
2022/10/27 05:08:35;;;;;;;3.33;2.20;;;;;;;;;;5086688;28;21000;-69
2022/10/27 05:11:01;;;;;;;4.73;2.17;;;;;;;;;;5088015;28;20440;-69
2022/10/27 05:13:27;;;;;;;4.10;2.50;;;;;;;;;;5089883;28;20935;-69
2022/10/27 05:15:58;;;;;;;3.47;3.17;;;;;;;;;;5088810;28;20444;-69
2022/10/27 05:18:24;;;;;;;6.83;3.10;;;;;;;;;;5087131;28;20440;-69
2022/10/27 05:20:50;;;;;;;6.30;2.30;;;;;;;;;;5090078;28;20497;-69
2022/10/27 05:23:16;;;;;;;3.03;1.90;;;;;;;;;;5090309;28;20507;-69
2022/10/27 05:25:42;;;;;;;5.97;2.13;;;;;;;;;;5087673;28;20440;-69
2022/10/27 05:28:10;;;;;;;6.40;4.10;;;;;;;;;;5087779;28;20997;-69
2022/10/27 05:30:36;;;;;;;3.57;3.33;;;;;;;;;;5088970;28;20770;-69
2022/10/27 05:33:03;;;;;;;4.57;4.17;;;;;;;;;;5086027;28;20442;-69
2022/10/27 05:35:29;;;;;;;6.80;4.97;;;;;;;;;;5088998;28;20523;-69
2022/10/27 05:37:55;;;;;;;6.43;5.83;;;;;;;;;;5089288;28;20436;-69
2022/10/27 05:40:21;;;;;;;9.63;4.77;;;;;;;;;;5088338;28;20432;-69
2022/10/27 05:42:51;;;;;;;9.90;4.77;;;;;;;;;;5088910;28;20428;-69
2022/10/27 05:45:17;;;;;;;4.77;3.00;;;;;;;;;;5086961;28;20444;-69
2022/10/27 05:47:43;;;;;;;5.90;5.43;;;;;;;;;;5087931;28;20922;-69
2022/10/27 05:50:09;;;;;;;9.90;3.90;;;;;;;;;;5082536;28;20439;-70
2022/10/27 05:52:35;;;;;;;4.00;3.80;;;;;;;;;;5085589;28;20832;-69
2022/10/27 05:55:01;;;;;;;7.33;3.30;;;;;;;;;;5088462;28;20432;-69
2022/10/27 05:57:27;;;;;;;11.93;2.67;;;;;;;;;;5086642;28;20428;-69
2022/10/27 05:59:53;;;;;;;12.70;2.40;;;;;;;;;;5088508;28;20521;-69
2022/10/27 06:02:19;;;;;;;6.27;3.17;;;;;;;;;;5083584;28;20958;-70
2022/10/27 06:04:45;;;;;;;7.37;3.00;;;;;;;;;;5085824;28;20515;-69
2022/10/27 06:07:11;;;;;;;4.80;3.33;;;;;;;;;;5089450;28;20952;-69
2022/10/27 06:09:37;;;;;;;9.07;3.20;;;;;;;;;;5089606;28;20440;-69
2022/10/27 06:12:03;;;;;;;3.57;2.63;;;;;;;;;;5091398;28;20486;-69
2022/10/27 06:14:29;;;;;;;3.47;2.90;;;;;;;;;;5090029;28;20436;-69
2022/10/27 06:16:55;;;;;;;3.63;3.43;;;;;;;;;;5089589;28;20433;-69
2022/10/27 06:19:21;;;;;;;4.60;3.00;;;;;;;;;;5090727;28;20435;-70
2022/10/27 06:21:47;;;;;;;3.10;2.90;;;;;;;;;;5088694;28;20936;-69
2022/10/27 06:24:13;;;;;;;4.00;3.57;;;;;;;;;;5087796;28;20517;-69
2022/10/27 06:26:39;;;;;;;5.43;2.63;;;;;;;;;;5084893;28;20456;-69
2022/10/27 06:29:05;;;;;;;3.37;2.53;;;;;;;;;;5088236;28;20863;-69
2022/10/27 06:31:31;;;;;;;7.40;2.67;;;;;;;;;;5088641;28;20424;-69
2022/10/27 06:33:57;;;;;;;5.67;2.40;;;;;;;;;;5089054;28;20451;-69
2022/10/27 06:36:23;;;;;;;2.00;1.93;;;;;;;;;;5089834;28;20424;-69
2022/10/27 06:38:49;;;;;;;4.90;2.60;;;;;;;;;;5087234;28;20498;-70
2022/10/27 06:41:15;;;;;;;4.20;2.40;;;;;;;;;;5101466;28;20953;-70
2022/10/27 06:43:41;;;;;;;4.97;2.40;;;;;;;;;;5087105;28;20484;-69
2022/10/27 06:46:07;;;;;;;2.30;2.20;;;;;;;;;;5086390;28;20528;-69
2022/10/27 06:48:33;;;;;;;2.63;2.43;;;;;;;;;;5090444;28;20443;-69
2022/10/27 06:50:59;;;;;;;2.30;2.20;;;;;;;;;;5104558;28;20795;-70
2022/10/27 06:53:24;;;;;;;2.70;2.50;;;;;;;;;;5088797;28;20549;-70
2022/10/27 06:55:50;;;;;;;2.80;2.70;;;;;;;;;;5088324;28;20526;-70
2022/10/27 06:58:16;;;;;;;5.97;3.63;;;;;;;;;;5102285;28;20963;-71
2022/10/27 07:00:42;;;;;;;5.63;4.33;;;;;;;;;;5086184;28;20443;-69
2022/10/27 07:03:09;;;;;;;3.57;2.80;;;;;;;;;;5087782;28;20887;-69
2022/10/27 07:05:35;;;;;;;7.30;3.40;;;;;;;;;;5087953;28;20482;-70
2022/10/27 07:08:02;;;;;;;3.67;3.33;;;;;;;;;;5085438;28;20439;-69
2022/10/27 07:10:28;;;;;;;5.23;3.97;;;;;;;;;;5087503;28;20437;-70
2022/10/27 07:13:01;;;;;;;7.80;4.57;;;;;;;;;;5082301;28;20436;-69
2022/10/27 07:15:30;;;;;;;9.30;4.10;;;;;;;;;;5081725;28;20429;-69
2022/10/27 07:18:00;;;;;;;6.90;4.00;;;;;;;;;;5085824;28;20443;-70
2022/10/27 07:20:27;;;;;;;6.00;3.60;;;;;;;;;;5088627;28;20448;-70
2022/10/27 07:22:53;;;;;;;9.20;5.30;;;;;;;;;;5086662;28;20432;-70
2022/10/27 07:25:19;;;;;;;6.50;5.27;;;;;;;;;;5088516;28;20444;-70
2022/10/27 07:27:52;;;;;;;7.80;5.67;;;;;;;;;;5086004;28;20900;-70
2022/10/27 07:30:18;;;;;;;13.20;6.20;;;;;;;;;;5088348;28;20944;-70
2022/10/27 07:32:44;;;;;;;11.30;4.90;;;;;;;;;;5087866;28;20432;-70
2022/10/27 07:35:10;;;;;;;18.10;8.50;;;;;;;;;;5070754;28;20482;-70
2022/10/27 07:37:41;;;;;;;7.27;4.97;;;;;;;;;;5089566;28;20416;-70
2022/10/27 07:40:07;;;;;;;4.80;4.33;;;;;;;;;;5086357;28;20445;-70
2022/10/27 07:42:40;;;;;;;5.73;4.50;;;;;;;;;;5088579;28;20841;-69
2022/10/27 07:45:06;;;;;;;5.00;4.53;;;;;;;;;;5087895;28;20527;-70
2022/10/27 07:47:32;;;;;;;11.60;4.60;;;;;;;;;;5088036;28;20462;-70
2022/10/27 07:49:58;;;;;;;11.53;4.73;;;;;;;;;;5088817;28;20428;-70
2022/10/27 07:52:24;;;;;;;7.77;4.83;;;;;;;;;;5088654;28;20431;-70
2022/10/27 07:54:50;;;;;;;9.83;4.23;;;;;;;;;;5089625;28;21047;-70
2022/10/27 07:57:16;;;;;;;13.73;4.60;;;;;;;;;;5088630;28;20428;-70
2022/10/27 07:59:42;;;;;;;7.40;4.00;;;;;;;;;;5087463;28;20463;-70
2022/10/27 08:02:10;;;;;;;4.33;4.13;;;;;;;;;;5083716;28;20959;-70
2022/10/27 08:04:36;;;;;;;8.03;3.83;;;;;;;;;;5088661;28;20583;-71
2022/10/27 08:07:02;;;;;;;4.93;4.37;;;;;;;;;;5089024;28;20520;-69
2022/10/27 08:09:28;;;;;;;9.30;4.00;;;;;;;;;;5089256;28;20478;-70
2022/10/27 08:11:54;;;;;;;9.33;3.90;;;;;;;;;;5087157;28;20900;-70
2022/10/27 08:14:20;;;;;;;6.70;4.40;;;;;;;;;;5082529;28;20444;-70
2022/10/27 08:16:46;;;;;;;4.00;3.30;;;;;;;;;;5086841;28;20461;-71
2022/10/27 08:19:12;;;;;;;2.90;2.80;;;;;;;;;;5095597;28;20467;-71
2022/10/27 08:21:38;;;;;;;5.57;4.50;;;;;;;;;;5101286;28;20420;-69
2022/10/27 08:24:04;;;;;;;6.53;4.73;;;;;;;;;;5083350;28;21091;-70
2022/10/27 08:26:31;;;;;;;6.70;4.83;;;;;;;;;;5087034;28;20531;-69
2022/10/27 08:28:57;;;;;;;17.53;4.53;;;;;;;;;;5091958;28;20444;-71
2022/10/27 08:31:23;;;;;;;4.87;4.33;;;;;;;;;;5091596;28;20501;-71
2022/10/27 08:33:49;;;;;;;4.80;3.87;;;;;;;;;;5107730;28;20862;-71
2022/10/27 08:36:15;;;;;;;7.97;4.10;;;;;;;;;;5093085;28;20440;-71
2022/10/27 08:38:41;;;;;;;6.33;4.57;;;;;;;;;;5093422;28;20427;-69
2022/10/27 08:41:23;;;;;;;5.00;3.93;;;;;;;;;;5090542;28;20667;-70
2022/10/27 08:43:49;;;;;;;12.20;4.53;;;;;;;;;;5087386;28;20440;-70
2022/10/27 08:46:34;;;;;;;8.90;4.10;;;;;;;;;;5091664;28;20611;-70
2022/10/27 08:49:02;;;;;;;4.70;3.60;;;;;;;;;;5104468;28;20421;-70
2022/10/27 08:51:30;;;;;;;6.10;4.23;;;;;;;;;;5088462;28;20455;-69
2022/10/27 08:53:56;;;;;;;8.03;4.83;;;;;;;;;;5087593;28;20440;-70
2022/10/27 08:56:23;;;;;;;11.03;4.17;;;;;;;;;;5090097;28;20908;-70
2022/10/27 08:58:49;;;;;;;6.00;4.03;;;;;;;;;;5106157;28;20436;-69
2022/10/27 09:01:41;;;;;;;5.80;4.20;;;;;;;;;;5090212;28;20433;-72
2022/10/27 09:04:10;;;;;;;4.77;3.53;;;;;;;;;;5081333;28;21027;-69
2022/10/27 09:06:46;;;;;;;7.70;4.10;;;;;;;;;;5084388;28;20879;-70
2022/10/27 09:09:48;;;;;;;6.17;4.33;;;;;;;;;;5072753;28;20436;-69
2022/10/27 09:12:14;;;;;;;6.90;4.07;;;;;;;;;;5005256;28;20958;-69
2022/10/27 09:14:45;;;;;;;10.00;4.17;;;;;;;;;;5068948;28;20441;-70
2022/10/27 09:17:14;;;;;;;5.13;4.70;;;;;;;;;;5087232;28;20436;-69
2022/10/27 09:19:45;;;;;;;6.20;5.60;;;;;;;;;;5090306;28;20908;-69
2022/10/27 09:22:14;;;;;;;10.73;5.93;;;;;;;;;;5090932;28;20895;-70
2022/10/27 09:24:40;;;;;;;10.00;6.80;;;;;;;;;;5088407;28;20472;-69
2022/10/27 09:27:07;;;;;;;9.80;6.53;;;;;;;;;;5086629;28;20448;-70
2022/10/27 09:29:36;;;;;;;9.37;6.43;;;;;;;;;;5090983;28;20479;-69
2022/10/27 09:32:11;;;;;;;5.43;5.07;;;;;;;;;;5106184;28;20432;-69
2022/10/27 09:34:40;;;;;;;14.73;5.23;;;;;;;;;;5104375;28;20433;-70
2022/10/27 09:37:13;;;;;;;4.83;4.13;;;;;;;;;;5088735;28;20433;-71
2022/10/27 09:39:42;;;;;;;6.57;4.40;;;;;;;;;;5088220;28;20429;-70
2022/10/27 09:42:08;;;;;;;6.90;4.27;;;;;;;;;;5104148;28;20485;-69
2022/10/27 09:44:34;;;;;;;6.17;4.97;;;;;;;;;;5091353;28;20488;-67
2022/10/27 09:47:00;;;;;;;8.83;4.53;;;;;;;;;;5086031;28;20437;-69
2022/10/27 09:49:35;;;;;;;4.60;4.23;;;;;;;;;;5088934;28;20451;-69
2022/10/27 09:52:10;;;;;;;12.20;4.30;;;;;;;;;;5091417;28;20421;-69
2022/10/27 09:54:38;;;;;;;4.60;4.20;;;;;;;;;;5091664;28;21431;-71
2022/10/27 09:57:17;;;;;;;7.67;5.33;;;;;;;;;;5090251;28;20445;-72
2022/10/27 09:59:43;;;;;;;4.60;4.20;;;;;;;;;;5089876;28;20424;-70
2022/10/27 10:02:23;;;;;;;13.53;4.70;;;;;;;;;;5105393;28;20456;-71
2022/10/27 10:04:49;;;;;;;6.30;5.07;;;;;;;;;;5088936;28;20492;-72
2022/10/27 10:07:34;;;;;;;5.00;4.20;;;;;;;;;;5087510;28;20528;-72
2022/10/27 10:10:19;;;;;;;2.83;2.63;;;;;;;;;;5086867;28;20433;-73
2022/10/27 10:12:45;;;;;;;13.13;3.90;;;;;;;;;;5089514;28;20785;-69
2022/10/27 10:15:11;;;;;;;5.03;3.80;;;;;;;;;;5089931;28;20424;-70
2022/10/27 10:17:41;;;;;;;6.30;4.03;;;;;;;;;;5103402;28;20459;-71
2022/10/27 10:20:08;;;;;;;11.03;5.20;;;;;;;;;;5089313;28;20424;-70
2022/10/27 10:22:35;;;;;;;5.63;4.90;;;;;;;;;;5087440;28;20436;-70
2022/10/27 10:25:13;;;;;;;24.30;21.70;;;;;;;;;;5089781;28;20469;-70
2022/10/27 10:27:39;;;;;;;5.20;4.87;;;;;;;;;;5089110;28;20869;-70
2022/10/27 10:30:06;;;;;;;5.37;4.97;;;;;;;;;;5090328;28;20441;-70
2022/10/27 10:32:34;;;;;;;11.30;7.00;;;;;;;;;;5090832;28;20928;-69
2022/10/27 10:35:00;;;;;;;6.00;5.50;;;;;;;;;;5087874;28;20436;-69
2022/10/27 10:37:30;;;;;;;7.23;3.60;;;;;;;;;;5088388;28;20456;-70
2022/10/27 10:40:29;;;;;;;4.50;3.53;;;;;;;;;;5088132;28;21901;-69
2022/10/27 10:43:02;;;;;;;4.73;4.40;;;;;;;;;;5028171;28;20433;-69
2022/10/27 10:45:29;;;;;;;13.43;6.60;;;;;;;;;;5086741;28;20435;-69
2022/10/27 10:48:15;;;;;;;6.97;5.90;;;;;;;;;;5089588;28;20515;-69
2022/10/27 10:50:46;;;;;;;5.57;4.10;;;;;;;;;;5086779;28;20433;-71
2022/10/27 10:53:20;;;;;;;7.50;4.57;;;;;;;;;;5089853;28;20433;-69
2022/10/27 10:55:47;;;;;;;7.17;5.10;;;;;;;;;;5085644;28;20428;-69
2022/10/27 10:58:15;;;;;;;9.00;4.40;;;;;;;;;;5091020;28;20436;-69
2022/10/27 11:00:58;;;;;;;7.27;4.53;;;;;;;;;;5086262;28;20432;-69
2022/10/27 11:03:25;;;;;;;7.57;5.00;;;;;;;;;;5088615;28;20568;-71
2022/10/27 11:05:53;;;;;;;8.10;4.43;;;;;;;;;;5101929;28;20451;-69
2022/10/27 11:08:20;;;;;;;14.60;4.73;;;;;;;;;;5090624;28;20807;-69
2022/10/27 11:10:47;;;;;;;9.10;3.70;;;;;;;;;;5088093;28;20432;-69
2022/10/27 11:13:18;;;;;;;9.07;3.70;;;;;;;;;;5085390;28;20438;-70
2022/10/27 11:15:44;;;;;;;4.53;3.70;;;;;;;;;;5088248;28;20432;-69
2022/10/27 11:18:14;;;;;;;12.13;4.07;;;;;;;;;;5088294;28;20424;-70
2022/10/27 11:20:41;;;;;;;4.10;3.37;;;;;;;;;;5090201;28;20432;-69
2022/10/27 11:23:32;;;;;;;5.10;3.30;;;;;;;;;;5100560;28;20470;-69
2022/10/27 11:25:59;;;;;;;4.57;3.10;;;;;;;;;;5085718;28;20961;-70
2022/10/27 11:28:27;;;;;;;7.57;3.50;;;;;;;;;;5085477;28;20504;-70
2022/10/27 11:30:59;;;;;;;3.40;3.10;;;;;;;;;;5090037;28;20456;-70
2022/10/27 11:33:36;;;;;;;3.83;2.73;;;;;;;;;;5087862;28;20420;-69
2022/10/27 11:36:08;;;;;;;5.93;3.10;;;;;;;;;;5088493;28;20464;-68
2022/10/27 11:38:42;;;;;;;2.20;2.10;;;;;;;;;;5088029;28;20417;-68
2022/10/27 11:41:28;;;;;;;4.27;3.10;;;;;;;;;;5085584;28;20436;-69
2022/10/27 11:44:02;;;;;;;3.73;2.00;;;;;;;;;;5067263;28;20511;-69
2022/10/27 11:46:37;;;;;;;4.40;2.80;;;;;;;;;;5085208;28;20439;-69
2022/10/27 11:49:08;;;;;;;13.40;3.23;;;;;;;;;;5086331;28;20495;-69
2022/10/27 11:51:44;;;;;;;1.30;1.30;;;;;;;;;;5083569;28;20429;-69
2022/10/27 11:54:10;;;;;;;11.43;3.10;;;;;;;;;;5087043;28;20876;-69
2022/10/27 11:56:50;;;;;;;5.13;2.70;;;;;;;;;;5086799;28;20401;-69
2022/10/27 11:59:29;;;;;;;2.90;2.80;;;;;;;;;;5085645;28;20420;-70
2022/10/27 12:02:00;;;;;;;12.63;3.60;;;;;;;;;;5083386;28;20437;-69
2022/10/27 12:04:45;;;;;;;4.00;2.80;;;;;;;;;;5088353;28;20494;-69
2022/10/27 12:07:17;;;;;;;1.30;1.20;;;;;;;;;;5062923;28;20478;-69
2022/10/27 12:09:49;;;;;;;1.87;1.70;;;;;;;;;;5068384;28;20414;-69
2022/10/27 12:12:23;;;;;;;3.30;3.10;;;;;;;;;;5068540;28;20425;-68
2022/10/27 12:14:49;;;;;;;6.57;3.50;;;;;;;;;;5065622;28;20467;-69
2022/10/27 12:17:35;;;;;;;4.73;2.20;;;;;;;;;;5067057;28;20469;-69
2022/10/27 12:20:03;;;;;;;4.40;3.27;;;;;;;;;;5047157;28;20445;-70
2022/10/27 12:22:52;;;;;;;8.90;3.20;;;;;;;;;;5067949;28;20437;-69
2022/10/27 12:25:31;;;;;;;2.70;2.53;;;;;;;;;;5061219;28;20916;-69
2022/10/27 12:28:00;;;;;;;6.57;2.20;;;;;;;;;;5066312;28;20440;-69
2022/10/27 12:30:26;;;;;;;3.53;2.57;;;;;;;;;;5068796;28;20421;-69
2022/10/27 12:33:13;;;;;;;8.63;2.70;;;;;;;;;;5068791;28;20430;-69
2022/10/27 12:35:39;;;;;;;3.13;1.90;;;;;;;;;;5048950;28;20453;-69
2022/10/27 12:38:20;;;;;;;2.03;1.40;;;;;;;;;;5066580;28;20425;-69
2022/10/27 12:40:56;;;;;;;9.00;2.50;;;;;;;;;;5068137;28;20467;-69
2022/10/27 12:43:37;;;;;;;2.53;1.03;;;;;;;;;;5066682;28;20499;-69
2022/10/27 12:46:22;;;;;;;1.30;1.20;;;;;;;;;;5066844;28;20482;-70
2022/10/27 12:48:48;;;;;;;2.63;2.00;;;;;;;;;;5050804;28;20429;-70
2022/10/27 12:51:29;;;;;;;4.53;2.13;;;;;;;;;;5067767;28;20433;-71
2022/10/27 12:54:01;;;;;;;6.73;3.50;;;;;;;;;;5068365;28;20904;-70
2022/10/27 12:56:41;;;;;;;1.47;1.47;;;;;;;;;;5049605;28;20476;-70
2022/10/27 12:59:12;;;;;;;20.20;3.87;;;;;;;;;;5065358;28;20461;-69
2022/10/27 13:01:55;;;;;;;16.50;3.90;;;;;;;;;;5066610;28;20417;-69
2022/10/27 13:04:41;;;;;;;6.50;1.83;;;;;;;;;;5065587;28;20558;-69
2022/10/27 13:07:07;;;;;;;4.87;2.40;;;;;;;;;;5067019;28;20452;-69
2022/10/27 13:09:49;;;;;;;1.90;1.60;;;;;;;;;;5067958;28;20429;-69
2022/10/27 13:12:21;;;;;;;2.90;1.90;;;;;;;;;;5072343;28;20793;-69
2022/10/27 13:14:59;;;;;;;7.27;3.30;;;;;;;;;;5072598;28;20414;-69
2022/10/27 13:17:39;;;;;;;7.77;1.90;;;;;;;;;;5070466;28;20436;-69
2022/10/27 13:20:10;;;;;;;26.70;5.67;;;;;;;;;;5072497;28;20482;-69
2022/10/27 13:22:39;;;;;;;7.80;2.53;;;;;;;;;;5072381;28;20488;-69
2022/10/27 13:25:27;;;;;;;1.20;1.13;;;;;;;;;;5072005;28;20483;-69
2022/10/27 13:28:05;;;;;;;2.10;2.00;;;;;;;;;;5071006;28;20504;-69
2022/10/27 13:30:33;;;;;;;2.23;2.13;;;;;;;;;;5053841;28;20431;-68
2022/10/27 13:32:59;;;;;;;3.43;3.20;;;;;;;;;;5072106;28;20838;-69
2022/10/27 13:35:30;;;;;;;1.57;1.47;;;;;;;;;;5053915;28;21650;-69
2022/10/27 13:37:59;;;;;;;2.70;2.50;;;;;;;;;;5070948;28;20806;-69
2022/10/27 13:40:29;;;;;;;3.87;2.60;;;;;;;;;;5071008;28;20419;-69
2022/10/27 13:42:54;;;;;;;5.67;2.83;;;;;;;;;;5070146;28;20787;-69
2022/10/27 13:45:26;;;;;;;1.80;1.30;;;;;;;;;;5072016;28;20537;-69
2022/10/27 13:48:10;;;;;;;5.77;2.20;;;;;;;;;;5071707;28;20502;-69
2022/10/27 13:50:54;;;;;;;1.03;1.03;;;;;;;;;;5071677;28;20417;-69
2022/10/27 13:53:21;;;;;;;2.53;2.40;;;;;;;;;;5072078;28;20476;-69
2022/10/27 13:55:51;;;;;;;15.50;7.93;;;;;;;;;;5069243;28;20494;-69
2022/10/27 13:58:20;;;;;;;16.83;5.20;;;;;;;;;;5070433;28;20490;-69
2022/10/27 14:01:05;;;;;;;5.87;5.30;;;;;;;;;;5070914;28;20567;-69
2022/10/27 14:03:37;;;;;;;8.23;2.57;;;;;;;;;;5071353;28;20465;-69
2022/10/27 14:06:03;;;;;;;14.30;2.50;;;;;;;;;;5071338;28;21032;-69
2022/10/27 14:08:30;;;;;;;1.57;1.57;;;;;;;;;;5070960;28;20433;-69
2022/10/27 14:10:58;;;;;;;5.40;2.20;;;;;;;;;;5070673;28;20992;-69
2022/10/27 14:13:28;;;;;;;2.30;1.20;;;;;;;;;;5071585;28;20847;-69
2022/10/27 14:15:59;;;;;;;2.60;2.40;;;;;;;;;;5052976;28;20430;-69
2022/10/27 14:18:30;;;;;;;3.73;2.10;;;;;;;;;;5070600;28;20459;-69
2022/10/27 14:20:58;;;;;;;8.73;2.27;;;;;;;;;;5068630;28;20422;-69
2022/10/27 14:23:24;;;;;;;4.03;2.20;;;;;;;;;;5071293;28;20473;-69
2022/10/27 14:25:50;;;;;;;1.83;1.73;;;;;;;;;;5070491;28;20516;-69
2022/10/27 14:28:19;;;;;;;3.97;2.20;;;;;;;;;;5069292;28;20520;-69
2022/10/27 14:30:46;;;;;;;2.00;1.60;;;;;;;;;;5070635;28;20512;-69
2022/10/27 14:33:20;;;;;;;6.03;1.73;;;;;;;;;;5070952;28;20421;-69
2022/10/27 14:35:46;;;;;;;1.97;1.60;;;;;;;;;;5070478;28;20433;-69
2022/10/27 14:38:17;;;;;;;2.87;1.97;;;;;;;;;;5070928;28;20784;-69
2022/10/27 14:40:44;;;;;;;2.20;2.00;;;;;;;;;;5069839;28;20472;-69
2022/10/27 14:43:17;;;;;;;6.00;2.33;;;;;;;;;;5070226;28;20432;-69
2022/10/27 14:45:43;;;;;;;4.30;2.57;;;;;;;;;;5069045;28;20448;-69
2022/10/27 14:48:17;;;;;;;3.03;1.60;;;;;;;;;;5070144;28;20555;-69
2022/10/27 14:50:43;;;;;;;2.23;1.97;;;;;;;;;;5070757;28;20418;-69
2022/10/27 14:53:22;;;;;;;4.00;2.03;;;;;;;;;;5070548;28;20428;-69